Time;durP1;ratioP1;P1;durP2;ratioP2;P2;SDS_P1;SDS_P2;PMS_P1;PMS_P2;Temp;Humidity;BMP_temperature;BMP_pressure;BME280_temperature;BME280_humidity;BME280_pressure;Samples;Min_cycle;Max_cycle;Signal;HPM_P1;HPM_P2
2021/12/30 00:00:44;;;;;;;43.35;8.45;;;;;;;10.21;100.00;101042.44;5027015;28;20478;-61
2021/12/30 00:03:10;;;;;;;37.10;8.10;;;;;;;10.21;100.00;101057.50;5025720;28;20037;-61
2021/12/30 00:05:37;;;;;;;35.53;7.50;;;;;;;10.18;100.00;101041.94;5026406;28;20060;-60
2021/12/30 00:08:02;;;;;;;35.90;8.32;;;;;;;10.21;100.00;101055.72;5027169;28;20628;-61
2021/12/30 00:10:28;;;;;;;38.80;8.65;;;;;;;10.18;100.00;101052.53;5026717;28;20045;-61
2021/12/30 00:12:54;;;;;;;42.30;9.00;;;;;;;10.22;100.00;101049.41;5026817;28;20025;-61
2021/12/30 00:15:19;;;;;;;43.17;9.43;;;;;;;10.30;100.00;101040.69;5031132;28;20084;-61
2021/12/30 00:17:45;;;;;;;38.20;9.65;;;;;;;10.29;100.00;101049.63;5025807;28;20033;-61
2021/12/30 00:20:11;;;;;;;41.45;9.50;;;;;;;10.31;100.00;101047.66;5026656;28;20032;-62
2021/12/30 00:22:37;;;;;;;40.63;10.00;;;;;;;10.26;100.00;101047.28;5028213;28;20029;-62
2021/12/30 00:25:04;;;;;;;40.35;9.73;;;;;;;10.31;100.00;101050.31;5029845;28;20028;-62
2021/12/30 00:27:29;;;;;;;37.20;9.73;;;;;;;10.31;100.00;101052.97;5030909;28;20029;-62
2021/12/30 00:29:55;;;;;;;40.08;9.50;;;;;;;10.31;100.00;101052.97;5032305;28;20095;-61
2021/12/30 00:32:20;;;;;;;44.80;9.98;;;;;;;10.28;100.00;101047.13;5032177;28;20036;-61
2021/12/30 00:34:45;;;;;;;37.35;9.70;;;;;;;10.25;100.00;101042.97;5031672;28;20436;-61
2021/12/30 00:37:10;;;;;;;40.42;10.52;;;;;;;10.25;100.00;101053.56;5032713;28;20060;-61
2021/12/30 00:39:36;;;;;;;38.28;9.65;;;;;;;10.25;100.00;101058.88;5031285;28;20029;-61
2021/12/30 00:42:01;;;;;;;43.67;9.57;;;;;;;10.25;100.00;101072.13;5029613;28;20037;-60
2021/12/30 00:44:27;;;;;;;40.67;9.90;;;;;;;10.28;100.00;101063.88;5029004;28;20029;-61
2021/12/30 00:46:52;;;;;;;44.88;10.02;;;;;;;10.27;100.00;101070.16;5029366;28;20026;-62
2021/12/30 00:49:18;;;;;;;39.95;9.60;;;;;;;10.28;100.00;101069.19;5031582;28;20025;-61
2021/12/30 00:51:44;;;;;;;44.97;9.43;;;;;;;10.31;100.00;101074.16;5030866;28;20091;-62
2021/12/30 00:54:09;;;;;;;47.08;9.63;;;;;;;10.40;100.00;101076.91;5027681;28;20029;-62
2021/12/30 00:56:35;;;;;;;44.08;8.95;;;;;;;10.38;100.00;101081.50;5030358;28;20055;-62
2021/12/30 00:59:00;;;;;;;44.88;9.00;;;;;;;10.38;100.00;101081.50;5031004;28;20029;-61
2021/12/30 01:01:25;;;;;;;37.35;8.77;;;;;;;10.37;100.00;101083.34;5029243;28;20037;-62
2021/12/30 01:03:51;;;;;;;43.67;8.95;;;;;;;10.38;100.00;101081.50;5033197;28;20083;-62
2021/12/30 01:06:17;;;;;;;43.30;8.77;;;;;;;10.39;100.00;101075.22;5026480;28;20021;-62
2021/12/30 01:08:43;;;;;;;35.70;8.25;;;;;;;10.43;100.00;101076.59;5027472;28;20041;-62
2021/12/30 01:11:08;;;;;;;43.08;8.18;;;;;;;10.43;100.00;101072.16;5029858;28;20090;-62
2021/12/30 01:13:40;;;;;;;40.47;8.30;;;;;;;10.42;100.00;101069.59;5028746;28;20048;-63
2021/12/30 01:16:22;;;;;;;34.75;7.50;;;;;;;10.44;100.00;101078.25;5030994;28;20044;-62
2021/12/30 01:19:01;;;;;;;41.33;7.72;;;;;;;10.45;100.00;101077.28;5031737;28;20032;-62
2021/12/30 01:21:30;;;;;;;40.47;7.78;;;;;;;10.47;100.00;101085.91;5031485;28;20026;-62
2021/12/30 01:23:56;;;;;;;38.10;7.80;;;;;;;10.53;100.00;101092.41;5029287;28;20029;-63
2021/12/30 01:26:22;;;;;;;46.00;8.65;;;;;;;10.60;100.00;101086.34;5027526;28;20037;-62
2021/12/30 01:28:49;;;;;;;37.50;8.07;;;;;;;10.57;100.00;101083.97;5028833;28;20051;-62
2021/12/30 01:31:15;;;;;;;43.70;8.70;;;;;;;10.60;100.00;101083.69;5026549;28;20037;-62
2021/12/30 01:33:42;;;;;;;41.03;8.80;;;;;;;10.63;100.00;101088.69;5029805;28;20025;-62
2021/12/30 01:36:08;;;;;;;38.70;8.10;;;;;;;10.67;100.00;101083.91;5028430;28;20387;-62
2021/12/30 01:38:33;;;;;;;36.92;8.40;;;;;;;10.66;100.00;101081.41;5030158;28;20035;-62
2021/12/30 01:41:01;;;;;;;37.65;9.00;;;;;;;10.77;100.00;101086.44;5030684;28;20142;-62
2021/12/30 01:43:27;;;;;;;37.97;9.57;;;;;;;10.73;100.00;101093.88;5028369;28;20033;-62
2021/12/30 01:45:53;;;;;;;38.95;9.70;;;;;;;10.77;100.00;101089.09;5029955;28;20388;-62
2021/12/30 01:48:18;;;;;;;34.92;9.00;;;;;;;10.79;100.00;101084.47;5027374;28;20038;-62
2021/12/30 01:50:44;;;;;;;41.38;9.90;;;;;;;10.82;100.00;101080.66;5028671;28;20487;-62
2021/12/30 01:53:10;;;;;;;42.25;9.73;;;;;;;10.81;100.00;101087.78;5028455;28;20430;-62
2021/12/30 01:55:38;;;;;;;37.90;9.00;;;;;;;10.88;100.00;101080.88;5030243;28;20678;-62
2021/12/30 01:58:04;;;;;;;37.50;9.88;;;;;;;10.97;100.00;101089.72;5032384;28;20042;-62
2021/12/30 02:00:30;;;;;;;41.70;9.52;;;;;;;10.90;100.00;101089.50;5030227;28;20041;-62
2021/12/30 02:02:56;;;;;;;39.95;10.07;;;;;;;10.87;100.00;101079.19;5030994;28;20048;-62
2021/12/30 02:05:21;;;;;;;34.92;10.00;;;;;;;10.86;100.00;101072.22;5029553;28;20030;-62
2021/12/30 02:07:47;;;;;;;36.92;10.02;;;;;;;10.88;100.00;101075.56;5028140;28;20073;-62
2021/12/30 02:10:13;;;;;;;35.83;9.73;;;;;;;10.86;100.00;101077.53;5031894;28;20370;-62
2021/12/30 02:12:40;;;;;;;37.42;10.10;;;;;;;10.86;100.00;101072.22;5030909;28;20038;-62
2021/12/30 02:15:10;;;;;;;37.97;9.90;;;;;;;10.94;100.00;101090.03;5027777;28;20822;-62
2021/12/30 02:17:36;;;;;;;38.60;10.02;;;;;;;10.93;100.00;101087.50;5029868;28;20471;-62
2021/12/30 02:20:05;;;;;;;40.30;10.13;;;;;;;10.94;100.00;101089.16;5031042;28;20052;-62
2021/12/30 02:22:30;;;;;;;34.38;10.13;;;;;;;11.00;100.00;101094.69;5029521;28;20121;-62
2021/12/30 02:24:57;;;;;;;38.03;10.15;;;;;;;10.96;100.00;101088.03;5030359;28;20418;-62
2021/12/30 02:27:23;;;;;;;29.17;9.80;;;;;;;10.97;100.00;101094.19;5031887;28;20048;-62
2021/12/30 02:29:49;;;;;;;38.80;9.82;;;;;;;10.97;100.00;101094.19;5030795;28;20030;-62
2021/12/30 02:32:14;;;;;;;38.55;10.30;;;;;;;10.96;100.00;101087.22;5030867;28;20037;-62
2021/12/30 02:34:39;;;;;;;38.72;9.85;;;;;;;11.02;100.00;101081.28;5027818;28;20021;-62
2021/12/30 02:37:07;;;;;;;35.25;8.95;;;;;;;10.97;100.00;101084.41;5026091;28;20059;-62
2021/12/30 02:39:33;;;;;;;36.53;9.45;;;;;;;11.00;100.00;101091.22;5030810;28;20116;-62
2021/12/30 02:41:58;;;;;;;33.40;8.95;;;;;;;11.05;100.00;101083.59;5026421;28;20124;-62
2021/12/30 02:44:24;;;;;;;28.52;9.00;;;;;;;11.02;100.00;101087.41;5026783;28;20064;-62
2021/12/30 02:46:53;;;;;;;29.65;9.70;;;;;;;11.03;100.00;101083.78;5027783;28;20108;-62
2021/12/30 02:49:20;;;;;;;33.13;9.00;;;;;;;11.04;100.00;101084.59;5027113;28;20036;-62
2021/12/30 02:51:45;;;;;;;26.70;9.10;;;;;;;11.06;100.00;101087.94;5024178;28;20026;-62
2021/12/30 02:54:10;;;;;;;27.33;8.20;;;;;;;11.04;100.00;101095.19;5025686;28;20523;-62
2021/12/30 02:56:36;;;;;;;32.58;8.88;;;;;;;11.04;100.00;101089.91;5026362;28;20045;-62
2021/12/30 02:59:02;;;;;;;30.42;8.57;;;;;;;11.08;100.00;101099.22;5026748;28;20025;-62
2021/12/30 03:01:31;;;;;;;26.02;8.63;;;;;;;11.04;100.00;101092.56;5026785;28;20044;-62
2021/12/30 03:04:00;;;;;;;28.00;8.23;;;;;;;11.11;100.00;101101.53;5030570;28;20021;-61
2021/12/30 03:06:27;;;;;;;23.73;8.23;;;;;;;11.08;100.00;101096.56;5027553;28;20025;-60
2021/12/30 03:08:53;;;;;;;24.67;8.20;;;;;;;11.10;100.00;101097.22;5027284;28;20119;-61
2021/12/30 03:11:19;;;;;;;22.80;7.82;;;;;;;11.22;100.00;101099.59;5027382;28;20095;-61
2021/12/30 03:13:45;;;;;;;23.20;8.25;;;;;;;11.16;100.00;101109.84;5028770;28;20026;-62
2021/12/30 03:16:21;;;;;;;19.85;8.02;;;;;;;11.11;100.00;101100.72;5026614;28;20590;-61
2021/12/30 03:18:49;;;;;;;20.95;7.97;;;;;;;11.12;100.00;101108.53;5028169;28;20041;-61
2021/12/30 03:21:18;;;;;;;21.10;8.35;;;;;;;11.11;100.00;101101.53;5027601;28;20157;-61
2021/12/30 03:23:44;;;;;;;19.50;7.63;;;;;;;11.10;100.00;101105.19;5028331;28;20025;-61
2021/12/30 03:26:10;;;;;;;19.38;7.97;;;;;;;11.12;100.00;101105.03;5028637;28;20493;-61
2021/12/30 03:28:39;;;;;;;20.13;7.93;;;;;;;11.09;100.00;101111.50;5027962;28;20021;-61
2021/12/30 03:31:05;;;;;;;17.08;7.88;;;;;;;11.11;100.00;101106.84;5027810;28;20518;-61
2021/12/30 03:33:32;;;;;;;18.10;7.57;;;;;;;11.09;100.00;101113.31;5026224;28;20101;-61
2021/12/30 03:35:59;;;;;;;17.50;7.20;;;;;;;11.13;100.00;101107.53;5027805;28;20485;-61
2021/12/30 03:38:26;;;;;;;20.15;7.80;;;;;;;11.13;100.00;101104.88;5025029;28;20025;-61
2021/12/30 03:40:52;;;;;;;16.05;7.55;;;;;;;11.22;100.00;101107.56;5029320;28;20041;-61
2021/12/30 03:43:17;;;;;;;17.52;7.32;;;;;;;11.20;100.00;101106.91;5026916;28;20034;-62
2021/12/30 03:45:44;;;;;;;15.50;7.28;;;;;;;11.21;100.00;101103.25;5027567;28;20029;-61
2021/12/30 03:48:09;;;;;;;14.68;6.80;;;;;;;11.24;100.00;101106.41;5027774;28;20066;-61
2021/12/30 03:50:42;;;;;;;15.40;7.05;;;;;;;11.29;100.00;101103.28;5027555;28;20060;-61
2021/12/30 03:53:08;;;;;;;12.13;7.10;;;;;;;11.35;100.00;101112.44;5026425;28;20040;-61
2021/12/30 03:55:33;;;;;;;15.75;7.38;;;;;;;11.35;100.00;101105.28;5028418;28;20025;-61
2021/12/30 03:57:58;;;;;;;13.48;7.35;;;;;;;11.33;100.00;101109.94;5031255;28;20079;-61
2021/12/30 04:00:26;;;;;;;16.92;7.72;;;;;;;11.33;100.00;101114.41;5028501;28;20032;-61
2021/12/30 04:02:53;;;;;;;14.57;8.20;;;;;;;11.33;100.00;101109.09;5033135;28;20037;-61
2021/12/30 04:05:19;;;;;;;16.75;8.13;;;;;;;11.42;100.00;101109.00;5033815;28;20426;-61
2021/12/30 04:07:45;;;;;;;17.42;9.48;;;;;;;11.46;100.00;101108.66;5032575;28;20056;-61
2021/12/30 04:10:13;;;;;;;18.02;10.05;;;;;;;11.49;100.00;101113.66;5033513;28;20128;-62
2021/12/30 04:12:40;;;;;;;20.88;10.30;;;;;;;11.66;100.00;101115.38;5032889;28;20120;-61
2021/12/30 04:15:06;;;;;;;22.70;11.52;;;;;;;11.60;100.00;101116.00;5031608;28;20026;-61
2021/12/30 04:17:31;;;;;;;20.77;12.00;;;;;;;11.64;100.00;101117.34;5033591;28;20033;-61
2021/12/30 04:19:57;;;;;;;20.13;11.25;;;;;;;11.78;100.00;101123.00;5032589;28;20385;-61
2021/12/30 04:22:23;;;;;;;20.52;11.98;;;;;;;11.75;100.00;101123.34;5032276;28;20025;-62
2021/12/30 04:24:48;;;;;;;20.90;12.27;;;;;;;11.85;100.00;101134.69;5034175;28;20025;-61
2021/12/30 04:27:14;;;;;;;23.83;14.07;;;;;;;11.85;100.00;101132.03;5031572;28;20474;-61
2021/12/30 04:29:39;;;;;;;21.92;12.43;;;;;;;11.86;100.00;101125.72;5030989;28;20067;-61
2021/12/30 04:32:05;;;;;;;22.80;14.98;;;;;;;11.86;100.00;101125.72;5031163;28;20026;-61
2021/12/30 04:34:31;;;;;;;22.60;15.50;;;;;;;11.82;100.00;101133.19;5033988;28;20040;-61
2021/12/30 04:37:00;;;;;;;22.70;16.02;;;;;;;11.78;100.00;101134.50;5029141;28;20664;-61
2021/12/30 04:39:27;;;;;;;23.48;15.70;;;;;;;11.93;100.00;101129.38;5031928;28;20033;-61
2021/12/30 04:41:52;;;;;;;25.33;16.55;;;;;;;11.82;100.00;101135.00;5027564;28;20037;-62
2021/12/30 04:44:17;;;;;;;24.48;16.30;;;;;;;11.90;100.00;101132.34;5027841;28;20037;-61
2021/12/30 04:46:43;;;;;;;23.60;16.20;;;;;;;11.86;100.00;101141.66;5031912;28;20037;-62
2021/12/30 04:49:08;;;;;;;25.05;16.90;;;;;;;11.94;100.00;101143.50;5030113;28;20044;-62
2021/12/30 04:51:33;;;;;;;23.92;17.23;;;;;;;11.95;100.00;101145.97;5022863;28;20060;-62
2021/12/30 04:53:58;;;;;;;28.08;18.17;;;;;;;11.94;100.00;101140.84;5032603;28;20033;-62
2021/12/30 04:56:24;;;;;;;24.90;18.25;;;;;;;11.97;100.00;101143.16;5033278;28;20044;-62
2021/12/30 04:58:49;;;;;;;26.67;19.52;;;;;;;12.02;100.00;101145.31;5032075;28;20032;-62
2021/12/30 05:01:15;;;;;;;26.98;18.27;;;;;;;12.02;100.00;101146.16;5027586;28;20018;-62
2021/12/30 05:03:40;;;;;;;25.63;19.92;;;;;;;12.03;100.00;101136.38;5028852;28;20442;-62
2021/12/30 05:06:05;;;;;;;24.35;19.13;;;;;;;12.04;100.00;101143.38;5028263;28;20033;-62
2021/12/30 05:08:31;;;;;;;25.35;19.20;;;;;;;12.01;100.00;101143.66;5028702;28;20041;-62
2021/12/30 05:10:56;;;;;;;26.23;19.55;;;;;;;12.02;100.00;101150.63;5026802;28;20103;-62
2021/12/30 05:13:22;;;;;;;23.88;18.58;;;;;;;12.03;100.00;101149.66;5031659;28;20107;-63
2021/12/30 05:15:47;;;;;;;24.23;18.02;;;;;;;12.04;100.00;101152.16;5030393;28;20378;-62
2021/12/30 05:18:14;;;;;;;23.70;17.52;;;;;;;12.04;100.00;101159.34;5030609;28;20026;-62
2021/12/30 05:20:39;;;;;;;22.48;17.30;;;;;;;12.07;100.00;101164.31;5030813;28;20037;-61
2021/12/30 05:23:05;;;;;;;21.05;16.27;;;;;;;12.05;100.00;101167.13;5031540;28;20026;-62
2021/12/30 05:25:31;;;;;;;19.52;14.73;;;;;;;12.19;100.00;101170.16;5031983;28;20550;-62
2021/12/30 05:27:57;;;;;;;17.42;13.43;;;;;;;12.17;100.00;101172.13;5030760;28;20088;-62
2021/12/30 05:30:23;;;;;;;18.17;12.60;;;;;;;12.17;100.00;101175.63;5028551;28;20069;-62
2021/12/30 05:32:50;;;;;;;14.60;11.50;;;;;;;12.26;100.00;101184.44;5032137;28;20036;-62
2021/12/30 05:35:16;;;;;;;13.70;10.82;;;;;;;12.31;100.00;101181.28;5031340;28;20478;-61
2021/12/30 05:37:42;;;;;;;14.05;10.93;;;;;;;12.26;100.00;101183.59;5029051;28;20048;-62
2021/12/30 05:40:10;;;;;;;13.75;11.45;;;;;;;12.38;100.00;101192.94;5027967;28;20493;-61
2021/12/30 05:42:36;;;;;;;12.63;11.25;;;;;;;12.37;100.00;101193.94;5028470;28;20156;-62
2021/12/30 05:45:03;;;;;;;11.90;10.68;;;;;;;12.34;100.00;101197.75;5027746;28;20112;-62
2021/12/30 05:47:29;;;;;;;11.52;10.38;;;;;;;12.40;100.00;101196.28;5029213;28;20033;-62
2021/12/30 05:49:54;;;;;;;12.07;10.77;;;;;;;12.40;100.00;101204.25;5031491;28;20075;-61
2021/12/30 05:52:20;;;;;;;10.80;9.70;;;;;;;12.46;100.00;101211.56;5028270;28;20036;-61
2021/12/30 05:54:45;;;;;;;10.90;9.80;;;;;;;12.47;100.00;101212.38;5028752;28;20084;-61
2021/12/30 05:57:10;;;;;;;11.35;10.02;;;;;;;12.36;100.00;101203.75;5030022;28;20026;-61
2021/12/30 05:59:36;;;;;;;11.52;10.32;;;;;;;12.48;100.00;101209.56;5031066;28;20033;-62
2021/12/30 06:02:03;;;;;;;13.20;10.85;;;;;;;12.55;100.00;101219.53;5028379;28;20068;-62
2021/12/30 06:04:28;;;;;;;12.48;10.30;;;;;;;12.65;100.00;101198.94;5028911;28;20064;-61
2021/12/30 06:06:53;;;;;;;14.23;11.55;;;;;;;12.57;100.00;101196.25;5026983;28;20033;-62
2021/12/30 06:09:22;;;;;;;15.05;12.23;;;;;;;12.56;100.00;101197.25;5025780;28;20476;-62
2021/12/30 06:11:47;;;;;;;16.05;13.30;;;;;;;12.52;100.00;101194.09;5025676;28;20029;-62
2021/12/30 06:14:12;;;;;;;14.85;13.13;;;;;;;12.49;100.00;101189.13;5024219;28;20420;-62
2021/12/30 06:16:38;;;;;;;18.30;13.73;;;;;;;12.51;100.00;101201.28;5024106;28;20029;-62
2021/12/30 06:19:03;;;;;;;16.88;14.15;;;;;;;12.50;100.00;101199.59;5020160;28;20060;-62
2021/12/30 06:21:28;;;;;;;15.40;13.63;;;;;;;12.45;100.00;101217.91;5027335;28;20079;-62
2021/12/30 06:23:53;;;;;;;17.17;13.98;;;;;;;12.39;100.00;101205.25;5030284;28;20041;-60
2021/12/30 06:26:19;;;;;;;16.40;13.52;;;;;;;12.38;100.00;101206.22;5019606;28;20040;-62
2021/12/30 06:28:44;;;;;;;13.70;12.25;;;;;;;12.44;100.00;101202.91;5021434;28;20033;-62
2021/12/30 06:31:09;;;;;;;12.80;10.88;;;;;;;12.47;100.00;101210.56;5022390;28;20025;-63
2021/12/30 06:33:35;;;;;;;12.18;10.80;;;;;;;12.43;100.00;101201.25;5021356;28;20455;-61
2021/12/30 06:36:00;;;;;;;12.38;10.80;;;;;;;12.42;100.00;101198.75;5036374;28;20033;-62
2021/12/30 06:38:25;;;;;;;11.75;10.20;;;;;;;12.44;100.00;101202.91;5023950;28;20160;-62
2021/12/30 06:40:50;;;;;;;12.73;10.50;;;;;;;12.45;100.00;101201.94;5020635;28;20032;-62
2021/12/30 06:43:16;;;;;;;11.80;9.60;;;;;;;12.45;100.00;101215.22;5022901;28;20096;-62
2021/12/30 06:45:44;;;;;;;9.65;8.40;;;;;;;12.56;100.00;101221.22;5021766;28;20394;-62
2021/12/30 06:48:13;;;;;;;12.30;9.90;;;;;;;12.57;99.88;101229.03;5021587;28;20061;-61
2021/12/30 06:50:38;;;;;;;10.98;9.00;;;;;;;12.61;99.18;101218.88;5022931;28;20045;-62
2021/12/30 06:53:04;;;;;;;12.45;9.13;;;;;;;12.63;99.00;101222.22;5026068;28;20034;-62
2021/12/30 06:55:29;;;;;;;13.20;9.00;;;;;;;12.55;99.86;101222.22;5021957;28;20075;-61
2021/12/30 06:57:54;;;;;;;11.13;8.65;;;;;;;12.67;98.41;101228.88;5024176;28;20071;-61
2021/12/30 07:00:21;;;;;;;10.23;8.88;;;;;;;12.54;99.56;101229.38;5023528;28;20117;-61
2021/12/30 07:02:46;;;;;;;10.73;8.10;;;;;;;12.55;99.43;101231.03;5026876;28;20025;-61
2021/12/30 07:05:12;;;;;;;10.52;8.00;;;;;;;12.55;99.57;101240.81;5022072;28;20038;-61
2021/12/30 07:07:37;;;;;;;11.02;8.30;;;;;;;12.47;100.00;101255.78;5025296;28;20156;-61
2021/12/30 07:10:04;;;;;;;8.32;7.40;;;;;;;12.55;99.66;101254.13;5031209;28;20125;-62
2021/12/30 07:12:30;;;;;;;11.50;7.60;;;;;;;12.46;100.00;101258.59;5033387;28;20029;-62
2021/12/30 07:14:57;;;;;;;10.13;7.70;;;;;;;12.60;99.26;101243.84;5035901;28;20406;-62
2021/12/30 07:17:22;;;;;;;12.75;8.50;;;;;;;12.71;98.11;101251.50;5032461;28;20022;-62
2021/12/30 07:19:47;;;;;;;11.65;8.82;;;;;;;12.68;98.53;101251.81;5023033;28;20049;-62
2021/12/30 07:22:12;;;;;;;15.32;10.38;;;;;;;12.59;99.30;101263.47;5028199;28;20091;-60
2021/12/30 07:24:38;;;;;;;13.98;10.48;;;;;;;12.64;99.08;101266.47;5029508;28;20091;-62
2021/12/30 07:27:03;;;;;;;14.73;11.60;;;;;;;12.61;98.97;101280.06;5020854;28;20041;-62
2021/12/30 07:29:28;;;;;;;13.80;11.10;;;;;;;12.62;99.05;101271.09;5021181;28;20026;-62
2021/12/30 07:31:53;;;;;;;16.33;11.45;;;;;;;12.66;98.98;101275.09;5024613;28;20510;-63
2021/12/30 07:34:19;;;;;;;16.23;12.15;;;;;;;12.69;98.58;101273.94;5030502;28;20079;-62
2021/12/30 07:36:44;;;;;;;14.75;10.82;;;;;;;12.68;98.45;101272.28;5026954;28;20398;-62
2021/12/30 07:39:10;;;;;;;14.32;11.15;;;;;;;12.70;98.03;101281.75;5034582;28;20033;-60
2021/12/30 07:41:35;;;;;;;15.85;10.52;;;;;;;12.57;99.69;101276.91;5034115;28;20031;-65
2021/12/30 07:44:00;;;;;;;13.68;10.23;;;;;;;12.60;99.56;101283.75;5034669;28;20044;-62
2021/12/30 07:46:26;;;;;;;13.50;8.90;;;;;;;12.53;100.00;101282.72;5034696;28;20053;-62
2021/12/30 07:48:51;;;;;;;11.55;8.25;;;;;;;12.57;99.86;101292.03;5034530;28;20033;-62
2021/12/30 07:51:16;;;;;;;11.13;7.97;;;;;;;12.69;98.75;101290.75;5033734;28;20037;-62
2021/12/30 07:53:42;;;;;;;13.40;8.52;;;;;;;12.68;98.48;101297.03;5026538;28;20461;-62
2021/12/30 07:56:08;;;;;;;14.48;9.13;;;;;;;12.65;98.90;101297.38;5034381;28;20038;-62
2021/12/30 07:58:33;;;;;;;16.83;8.57;;;;;;;12.68;98.80;101294.38;5037233;28;20033;-62
2021/12/30 08:00:58;;;;;;;11.38;8.23;;;;;;;12.71;98.27;101288.75;5037801;28;20030;-62
2021/12/30 08:03:24;;;;;;;10.65;7.95;;;;;;;12.64;99.08;101287.75;5038294;28;20115;-62
2021/12/30 08:05:50;;;;;;;11.15;7.30;;;;;;;12.62;99.02;101282.56;5034319;28;20033;-62
2021/12/30 08:08:15;;;;;;;8.95;7.05;;;;;;;12.57;99.54;101278.72;5040486;28;20041;-62
2021/12/30 08:10:41;;;;;;;10.98;7.20;;;;;;;12.59;99.06;101287.41;5035952;28;20119;-62
2021/12/30 08:13:06;;;;;;;7.95;6.00;;;;;;;12.67;98.21;101292.72;5036640;28;20545;-62
2021/12/30 08:15:31;;;;;;;9.38;6.00;;;;;;;12.62;98.48;101295.03;5024075;28;20029;-61
2021/12/30 08:17:57;;;;;;;9.20;5.68;;;;;;;12.72;97.54;101302.88;5025159;28;20029;-62
2021/12/30 08:20:22;;;;;;;8.68;5.47;;;;;;;12.63;98.13;101312.69;5019896;28;20402;-62
2021/12/30 08:22:50;;;;;;;6.90;5.20;;;;;;;12.68;97.87;101315.66;5023705;28;20042;-62
2021/12/30 08:25:16;;;;;;;5.80;4.75;;;;;;;12.80;96.65;101318.00;5033023;28;20419;-60
2021/12/30 08:27:41;;;;;;;5.13;4.25;;;;;;;12.69;97.67;101322.69;5022697;28;20026;-62
2021/12/30 08:30:11;;;;;;;5.72;4.25;;;;;;;12.64;98.26;101309.84;5030039;28;20596;-62
2021/12/30 08:32:36;;;;;;;5.82;4.03;;;;;;;12.66;97.86;101307.03;5037154;28;20029;-62
2021/12/30 08:35:02;;;;;;;5.85;3.85;;;;;;;12.78;97.17;101311.03;5029198;28;20037;-62
2021/12/30 08:37:28;;;;;;;6.97;3.80;;;;;;;12.68;97.64;101310.34;5025755;28;20041;-62
2021/12/30 08:39:53;;;;;;;5.40;3.67;;;;;;;12.75;97.39;101322.03;5025204;28;20132;-62
2021/12/30 08:42:24;;;;;;;6.00;4.18;;;;;;;12.71;98.12;101318.00;5024037;28;20405;-62
2021/12/30 08:44:51;;;;;;;6.05;4.20;;;;;;;12.68;98.03;101321.00;5022630;28;20041;-61
2021/12/30 08:47:16;;;;;;;7.05;4.15;;;;;;;12.65;98.05;101331.97;5021622;28;20160;-62
2021/12/30 08:49:45;;;;;;;8.23;4.75;;;;;;;12.68;97.96;101326.31;5023599;28;20116;-61
2021/12/30 08:52:12;;;;;;;9.25;4.80;;;;;;;12.64;98.61;101351.59;5025824;28;20028;-62
2021/12/30 08:54:37;;;;;;;6.18;4.72;;;;;;;12.72;97.88;101348.94;5025243;28;20128;-62
2021/12/30 08:57:04;;;;;;;8.93;5.05;;;;;;;12.71;98.20;101360.59;5023710;28;20539;-62
2021/12/30 08:59:29;;;;;;;8.75;5.32;;;;;;;12.80;97.47;101363.25;5025409;28;20041;-63
2021/12/30 09:01:55;;;;;;;11.20;5.55;;;;;;;12.86;97.19;101371.44;5022200;28;20034;-61
2021/12/30 09:04:20;;;;;;;12.73;5.90;;;;;;;12.95;96.00;101366.97;5027359;28;20056;-62
2021/12/30 09:06:45;;;;;;;10.75;5.25;;;;;;;13.01;95.91;101363.63;5022299;28;20027;-62
2021/12/30 09:09:11;;;;;;;9.15;5.68;;;;;;;12.96;96.09;101365.09;5024022;28;20022;-62
2021/12/30 09:11:36;;;;;;;9.23;5.10;;;;;;;13.01;95.35;101358.31;5021672;28;20053;-61
2021/12/30 09:14:01;;;;;;;7.22;5.13;;;;;;;13.04;95.50;101362.47;5027534;28;20371;-62
2021/12/30 09:16:26;;;;;;;9.40;5.50;;;;;;;12.97;96.40;101346.31;5032225;28;20033;-62
2021/12/30 09:18:52;;;;;;;11.85;5.57;;;;;;;12.96;96.37;101365.94;5036678;28;20032;-62
2021/12/30 09:21:17;;;;;;;10.85;5.55;;;;;;;13.07;94.87;101367.44;5035868;28;20624;-62
2021/12/30 09:23:42;;;;;;;10.88;5.35;;;;;;;13.25;93.70;101367.31;5039511;28;20029;-62
2021/12/30 09:26:08;;;;;;;9.80;5.35;;;;;;;13.27;93.56;101367.97;5036964;28;20133;-62
2021/12/30 09:28:33;;;;;;;8.38;4.20;;;;;;;13.19;93.79;101370.66;5037310;28;20029;-61
2021/12/30 09:30:58;;;;;;;7.95;4.70;;;;;;;13.26;93.05;101371.63;5031816;28;20447;-59
2021/12/30 09:33:24;;;;;;;11.82;4.70;;;;;;;13.21;93.20;101381.94;5021645;28;20036;-62
2021/12/30 09:35:49;;;;;;;10.23;4.60;;;;;;;13.18;93.81;101395.59;5024398;28;20036;-62
2021/12/30 09:38:14;;;;;;;11.98;4.50;;;;;;;13.14;93.50;101392.44;5024203;28;21114;-63
2021/12/30 09:40:40;;;;;;;9.60;3.78;;;;;;;13.28;92.30;101390.13;5022557;28;20021;-57
2021/12/30 09:43:09;;;;;;;9.68;4.05;;;;;;;13.16;93.43;101384.28;5021416;28;20300;-62
2021/12/30 09:45:37;;;;;;;12.73;4.35;;;;;;;13.18;93.15;101387.63;5019971;28;20037;-62
2021/12/30 09:48:06;;;;;;;12.68;4.40;;;;;;;13.19;92.81;101390.09;5022670;28;20025;-61
2021/12/30 09:50:41;;;;;;;11.02;4.10;;;;;;;13.22;92.68;101399.59;5021557;28;20278;-62
2021/12/30 09:53:07;;;;;;;12.35;4.15;;;;;;;13.28;91.07;101398.09;5024356;28;20069;-62
2021/12/30 09:55:33;;;;;;;12.52;4.40;;;;;;;13.35;90.93;101411.56;5023271;28;20510;-62
2021/12/30 09:57:59;;;;;;;11.52;4.38;;;;;;;13.30;90.90;101399.63;5022267;28;20478;-62
2021/12/30 10:00:25;;;;;;;14.63;4.57;;;;;;;13.31;90.73;101411.09;5023626;28;20075;-62
2021/12/30 10:02:51;;;;;;;12.15;4.40;;;;;;;13.29;90.91;101403.28;5026247;28;20486;-62
2021/12/30 10:05:20;;;;;;;11.85;4.30;;;;;;;13.51;88.60;101390.31;5024023;28;20031;-62
2021/12/30 10:07:46;;;;;;;15.02;4.70;;;;;;;13.36;89.66;101399.94;5025472;28;20029;-62
2021/12/30 10:10:32;;;;;;;14.85;4.60;;;;;;;13.42;90.29;101396.63;5020985;28;20095;-62
2021/12/30 10:12:59;;;;;;;10.80;4.22;;;;;;;13.39;89.45;101404.94;5021722;28;20030;-62
2021/12/30 10:15:28;;;;;;;12.25;4.10;;;;;;;13.32;90.14;101410.91;5022651;28;20356;-62
2021/12/30 10:17:58;;;;;;;14.07;4.07;;;;;;;13.23;91.25;101403.91;5022747;28;20497;-62
2021/12/30 10:20:29;;;;;;;12.52;3.95;;;;;;;13.27;90.98;101410.59;5022386;28;20037;-62
2021/12/30 10:23:06;;;;;;;15.00;4.25;;;;;;;13.28;91.10;101411.44;5021888;28;20474;-62
2021/12/30 10:25:35;;;;;;;14.10;4.18;;;;;;;13.27;90.77;101407.09;5020610;28;20037;-62
2021/12/30 10:28:15;;;;;;;14.07;3.90;;;;;;;13.57;89.19;101410.94;5020194;28;20056;-62
2021/12/30 10:30:41;;;;;;;11.68;3.88;;;;;;;13.46;89.13;101408.63;5020634;28;20469;-59
2021/12/30 10:33:21;;;;;;;11.98;4.13;;;;;;;13.40;90.35;101403.94;5021804;28;20030;-62
2021/12/30 10:35:47;;;;;;;13.80;4.32;;;;;;;13.37;90.09;101409.59;5022687;28;20566;-62
2021/12/30 10:38:14;;;;;;;14.18;4.05;;;;;;;13.59;87.54;101418.78;5020299;28;20056;-61
2021/12/30 10:40:43;;;;;;;15.15;4.32;;;;;;;13.48;88.46;101398.66;5026882;28;20037;-62
2021/12/30 10:43:33;;;;;;;14.15;4.20;;;;;;;13.53;88.96;101403.47;5028519;28;20064;-62
2021/12/30 10:46:03;;;;;;;15.07;4.38;;;;;;;13.44;89.15;101405.28;5022878;28;20525;-62
2021/12/30 10:48:29;;;;;;;14.00;4.03;;;;;;;13.54;87.89;101410.47;5019723;28;20029;-62
2021/12/30 10:51:15;;;;;;;14.93;4.07;;;;;;;13.65;88.50;101409.28;5020646;28;20087;-62
2021/12/30 10:53:41;;;;;;;15.77;4.22;;;;;;;13.51;87.98;101410.81;5021755;28;20103;-61
2021/12/30 10:56:25;;;;;;;14.23;3.78;;;;;;;13.72;87.01;101411.09;5017531;28;20026;-62
2021/12/30 10:58:53;;;;;;;15.30;4.05;;;;;;;13.51;88.23;101414.28;5022849;28;20052;-62
2021/12/30 11:01:20;;;;;;;15.45;4.03;;;;;;;13.53;87.93;101398.13;5021942;28;20045;-62
2021/12/30 11:04:00;;;;;;;17.27;4.07;;;;;;;13.53;88.19;101403.47;5022076;28;20479;-62
2021/12/30 11:06:27;;;;;;;13.57;3.83;;;;;;;13.69;85.91;101407.94;5026112;28;20110;-60
2021/12/30 11:09:10;;;;;;;11.70;3.70;;;;;;;13.58;87.43;101404.63;5020230;28;20113;-61